sensor_id;sensor_type;location;lat;lon;timestamp;P1;durP1;ratioP1;P2;durP2;ratioP2
40675;SDS011;26359;48.750;9.314;2022-12-08T00:00:50;17.13;;;12.82;;
40675;SDS011;26359;48.750;9.314;2022-12-08T00:03:15;16.95;;;13.15;;
40675;SDS011;26359;48.750;9.314;2022-12-08T00:05:44;18.45;;;13.27;;
40675;SDS011;26359;48.750;9.314;2022-12-08T00:08:30;21.77;;;13.57;;
40675;SDS011;26359;48.750;9.314;2022-12-08T00:11:14;19.63;;;13.48;;
40675;SDS011;26359;48.750;9.314;2022-12-08T00:13:41;17.48;;;12.90;;
40675;SDS011;26359;48.750;9.314;2022-12-08T00:16:06;20.48;;;13.60;;
40675;SDS011;26359;48.750;9.314;2022-12-08T00:18:33;17.13;;;13.32;;
40675;SDS011;26359;48.750;9.314;2022-12-08T00:20:58;18.38;;;12.20;;
40675;SDS011;26359;48.750;9.314;2022-12-08T00:23:24;17.77;;;13.82;;
40675;SDS011;26359;48.750;9.314;2022-12-08T00:25:50;18.58;;;13.55;;
40675;SDS011;26359;48.750;9.314;2022-12-08T00:28:15;20.55;;;13.60;;
40675;SDS011;26359;48.750;9.314;2022-12-08T00:30:41;18.27;;;13.85;;
40675;SDS011;26359;48.750;9.314;2022-12-08T00:33:07;17.45;;;13.63;;
40675;SDS011;26359;48.750;9.314;2022-12-08T00:35:33;17.92;;;13.88;;
40675;SDS011;26359;48.750;9.314;2022-12-08T00:37:59;17.05;;;12.90;;
40675;SDS011;26359;48.750;9.314;2022-12-08T00:40:24;17.55;;;12.95;;
40675;SDS011;26359;48.750;9.314;2022-12-08T00:42:50;19.23;;;13.13;;
40675;SDS011;26359;48.750;9.314;2022-12-08T00:45:15;17.92;;;12.68;;
40675;SDS011;26359;48.750;9.314;2022-12-08T00:47:41;16.20;;;12.57;;
40675;SDS011;26359;48.750;9.314;2022-12-08T00:50:07;15.70;;;12.30;;
40675;SDS011;26359;48.750;9.314;2022-12-08T00:52:32;20.38;;;12.95;;
40675;SDS011;26359;48.750;9.314;2022-12-08T00:54:58;16.15;;;13.13;;
40675;SDS011;26359;48.750;9.314;2022-12-08T00:57:23;19.10;;;14.02;;
40675;SDS011;26359;48.750;9.314;2022-12-08T00:59:49;18.83;;;13.15;;
40675;SDS011;26359;48.750;9.314;2022-12-08T01:02:15;17.67;;;12.82;;
40675;SDS011;26359;48.750;9.314;2022-12-08T01:04:40;17.92;;;13.45;;
40675;SDS011;26359;48.750;9.314;2022-12-08T01:07:06;20.23;;;13.57;;
40675;SDS011;26359;48.750;9.314;2022-12-08T01:09:31;17.65;;;12.15;;
40675;SDS011;26359;48.750;9.314;2022-12-08T01:11:57;17.75;;;12.25;;
40675;SDS011;26359;48.750;9.314;2022-12-08T01:14:23;17.25;;;12.50;;
40675;SDS011;26359;48.750;9.314;2022-12-08T01:16:49;17.02;;;12.82;;
40675;SDS011;26359;48.750;9.314;2022-12-08T01:19:14;19.33;;;12.60;;
40675;SDS011;26359;48.750;9.314;2022-12-08T01:21:41;17.73;;;12.70;;
40675;SDS011;26359;48.750;9.314;2022-12-08T01:24:12;18.63;;;12.95;;
40675;SDS011;26359;48.750;9.314;2022-12-08T01:26:40;17.63;;;13.52;;
40675;SDS011;26359;48.750;9.314;2022-12-08T01:29:06;20.95;;;14.30;;
40675;SDS011;26359;48.750;9.314;2022-12-08T01:31:32;19.17;;;13.98;;
40675;SDS011;26359;48.750;9.314;2022-12-08T01:33:57;17.17;;;12.68;;
40675;SDS011;26359;48.750;9.314;2022-12-08T01:36:23;18.48;;;13.55;;
40675;SDS011;26359;48.750;9.314;2022-12-08T01:38:55;18.95;;;12.45;;
40675;SDS011;26359;48.750;9.314;2022-12-08T01:41:23;18.58;;;13.40;;
40675;SDS011;26359;48.750;9.314;2022-12-08T01:46:18;18.48;;;12.77;;
40675;SDS011;26359;48.750;9.314;2022-12-08T01:48:44;19.30;;;13.40;;
40675;SDS011;26359;48.750;9.314;2022-12-08T01:51:10;19.15;;;13.32;;
40675;SDS011;26359;48.750;9.314;2022-12-08T01:53:35;17.73;;;11.30;;
40675;SDS011;26359;48.750;9.314;2022-12-08T01:56:04;18.60;;;13.50;;
40675;SDS011;26359;48.750;9.314;2022-12-08T01:58:35;16.55;;;12.07;;
40675;SDS011;26359;48.750;9.314;2022-12-08T02:01:05;15.77;;;11.98;;
40675;SDS011;26359;48.750;9.314;2022-12-08T02:03:35;16.88;;;12.57;;
40675;SDS011;26359;48.750;9.314;2022-12-08T02:06:06;18.42;;;12.18;;
40675;SDS011;26359;48.750;9.314;2022-12-08T02:08:33;16.75;;;12.18;;
40675;SDS011;26359;48.750;9.314;2022-12-08T02:11:00;19.20;;;12.48;;
40675;SDS011;26359;48.750;9.314;2022-12-08T02:13:25;17.90;;;12.43;;
40675;SDS011;26359;48.750;9.314;2022-12-08T02:21:55;18.90;;;12.57;;
40675;SDS011;26359;48.750;9.314;2022-12-08T02:35:24;18.33;;;13.23;;
40675;SDS011;26359;48.750;9.314;2022-12-08T02:40:30;16.90;;;12.38;;
40675;SDS011;26359;48.750;9.314;2022-12-08T02:43:08;20.23;;;12.13;;
40675;SDS011;26359;48.750;9.314;2022-12-08T02:45:40;18.08;;;13.20;;
40675;SDS011;26359;48.750;9.314;2022-12-08T02:48:11;19.40;;;14.23;;
40675;SDS011;26359;48.750;9.314;2022-12-08T02:50:36;18.25;;;14.05;;
40675;SDS011;26359;48.750;9.314;2022-12-08T02:53:02;16.30;;;12.63;;
40675;SDS011;26359;48.750;9.314;2022-12-08T02:55:30;20.23;;;13.05;;
40675;SDS011;26359;48.750;9.314;2022-12-08T03:03:34;17.30;;;12.48;;
40675;SDS011;26359;48.750;9.314;2022-12-08T03:11:22;18.73;;;12.98;;
40675;SDS011;26359;48.750;9.314;2022-12-08T03:14:08;18.90;;;12.23;;
40675;SDS011;26359;48.750;9.314;2022-12-08T03:16:37;16.77;;;12.32;;
40675;SDS011;26359;48.750;9.314;2022-12-08T03:19:07;17.70;;;12.32;;
40675;SDS011;26359;48.750;9.314;2022-12-08T03:21:37;19.40;;;12.57;;
40675;SDS011;26359;48.750;9.314;2022-12-08T03:24:05;17.60;;;12.43;;
40675;SDS011;26359;48.750;9.314;2022-12-08T03:29:21;15.05;;;12.55;;
40675;SDS011;26359;48.750;9.314;2022-12-08T03:31:53;16.88;;;11.70;;
40675;SDS011;26359;48.750;9.314;2022-12-08T03:34:22;15.27;;;11.68;;
40675;SDS011;26359;48.750;9.314;2022-12-08T03:36:50;13.55;;;11.30;;
40675;SDS011;26359;48.750;9.314;2022-12-08T03:39:16;16.83;;;12.43;;
40675;SDS011;26359;48.750;9.314;2022-12-08T03:41:42;15.88;;;11.65;;
40675;SDS011;26359;48.750;9.314;2022-12-08T03:44:07;19.00;;;13.20;;
40675;SDS011;26359;48.750;9.314;2022-12-08T03:46:33;17.67;;;12.43;;
40675;SDS011;26359;48.750;9.314;2022-12-08T03:48:58;20.23;;;14.23;;
40675;SDS011;26359;48.750;9.314;2022-12-08T03:51:24;19.67;;;14.85;;
40675;SDS011;26359;48.750;9.314;2022-12-08T03:53:51;19.10;;;14.18;;
40675;SDS011;26359;48.750;9.314;2022-12-08T03:56:26;18.13;;;14.18;;
40675;SDS011;26359;48.750;9.314;2022-12-08T03:58:54;19.27;;;14.27;;
40675;SDS011;26359;48.750;9.314;2022-12-08T04:01:20;19.02;;;13.60;;
40675;SDS011;26359;48.750;9.314;2022-12-08T04:03:47;18.08;;;13.07;;
40675;SDS011;26359;48.750;9.314;2022-12-08T04:06:13;16.30;;;12.43;;
40675;SDS011;26359;48.750;9.314;2022-12-08T04:08:39;18.17;;;13.10;;
40675;SDS011;26359;48.750;9.314;2022-12-08T04:11:05;19.63;;;12.68;;
40675;SDS011;26359;48.750;9.314;2022-12-08T04:13:31;17.80;;;12.73;;
40675;SDS011;26359;48.750;9.314;2022-12-08T04:15:57;18.77;;;12.98;;
40675;SDS011;26359;48.750;9.314;2022-12-08T04:18:23;18.33;;;13.45;;
40675;SDS011;26359;48.750;9.314;2022-12-08T04:20:48;18.10;;;13.30;;
40675;SDS011;26359;48.750;9.314;2022-12-08T04:23:14;18.63;;;13.02;;
40675;SDS011;26359;48.750;9.314;2022-12-08T04:25:40;18.70;;;13.35;;
40675;SDS011;26359;48.750;9.314;2022-12-08T04:28:05;20.58;;;13.55;;
40675;SDS011;26359;48.750;9.314;2022-12-08T04:30:31;17.88;;;12.93;;
40675;SDS011;26359;48.750;9.314;2022-12-08T04:32:57;19.38;;;14.55;;
40675;SDS011;26359;48.750;9.314;2022-12-08T04:35:23;19.90;;;13.65;;
40675;SDS011;26359;48.750;9.314;2022-12-08T04:37:48;17.90;;;14.65;;
40675;SDS011;26359;48.750;9.314;2022-12-08T04:40:14;17.40;;;13.35;;
40675;SDS011;26359;48.750;9.314;2022-12-08T04:42:40;18.15;;;14.55;;
40675;SDS011;26359;48.750;9.314;2022-12-08T04:45:05;17.98;;;14.02;;
40675;SDS011;26359;48.750;9.314;2022-12-08T04:47:31;18.75;;;14.93;;
40675;SDS011;26359;48.750;9.314;2022-12-08T04:49:57;20.10;;;15.00;;
40675;SDS011;26359;48.750;9.314;2022-12-08T04:52:23;20.92;;;16.35;;
40675;SDS011;26359;48.750;9.314;2022-12-08T04:54:48;20.23;;;14.52;;
40675;SDS011;26359;48.750;9.314;2022-12-08T04:57:14;20.65;;;15.45;;
40675;SDS011;26359;48.750;9.314;2022-12-08T04:59:40;20.10;;;14.05;;
40675;SDS011;26359;48.750;9.314;2022-12-08T05:02:05;19.63;;;13.82;;
40675;SDS011;26359;48.750;9.314;2022-12-08T05:04:31;19.88;;;13.18;;
40675;SDS011;26359;48.750;9.314;2022-12-08T05:06:56;20.23;;;14.05;;
40675;SDS011;26359;48.750;9.314;2022-12-08T05:09:22;20.05;;;13.50;;
40675;SDS011;26359;48.750;9.314;2022-12-08T05:11:48;18.42;;;13.95;;
40675;SDS011;26359;48.750;9.314;2022-12-08T05:14:14;18.90;;;13.70;;
40675;SDS011;26359;48.750;9.314;2022-12-08T05:16:41;23.33;;;16.40;;
40675;SDS011;26359;48.750;9.314;2022-12-08T05:19:08;19.25;;;15.20;;
40675;SDS011;26359;48.750;9.314;2022-12-08T05:21:33;19.60;;;16.05;;
40675;SDS011;26359;48.750;9.314;2022-12-08T05:23:59;20.02;;;15.60;;
40675;SDS011;26359;48.750;9.314;2022-12-08T05:26:24;17.98;;;15.02;;
40675;SDS011;26359;48.750;9.314;2022-12-08T05:28:50;18.30;;;15.48;;
40675;SDS011;26359;48.750;9.314;2022-12-08T05:31:16;20.73;;;17.30;;
40675;SDS011;26359;48.750;9.314;2022-12-08T05:33:42;21.15;;;16.05;;
40675;SDS011;26359;48.750;9.314;2022-12-08T05:36:09;20.45;;;17.13;;
40675;SDS011;26359;48.750;9.314;2022-12-08T05:38:37;18.88;;;15.18;;
40675;SDS011;26359;48.750;9.314;2022-12-08T05:41:03;17.85;;;13.85;;
40675;SDS011;26359;48.750;9.314;2022-12-08T05:43:30;19.85;;;15.63;;
40675;SDS011;26359;48.750;9.314;2022-12-08T05:45:56;22.17;;;16.83;;
40675;SDS011;26359;48.750;9.314;2022-12-08T05:48:21;24.52;;;16.05;;
40675;SDS011;26359;48.750;9.314;2022-12-08T05:50:47;21.17;;;14.55;;
40675;SDS011;26359;48.750;9.314;2022-12-08T05:53:14;19.85;;;14.73;;
40675;SDS011;26359;48.750;9.314;2022-12-08T05:55:40;20.55;;;16.30;;
40675;SDS011;26359;48.750;9.314;2022-12-08T05:58:06;20.80;;;15.65;;
40675;SDS011;26359;48.750;9.314;2022-12-08T06:00:33;23.05;;;16.08;;
40675;SDS011;26359;48.750;9.314;2022-12-08T06:02:59;19.63;;;16.40;;
40675;SDS011;26359;48.750;9.314;2022-12-08T06:05:25;18.00;;;14.05;;
40675;SDS011;26359;48.750;9.314;2022-12-08T06:07:50;21.85;;;14.52;;
40675;SDS011;26359;48.750;9.314;2022-12-08T06:10:16;20.15;;;13.93;;
40675;SDS011;26359;48.750;9.314;2022-12-08T06:12:42;21.73;;;16.13;;
40675;SDS011;26359;48.750;9.314;2022-12-08T06:15:07;22.98;;;17.02;;
40675;SDS011;26359;48.750;9.314;2022-12-08T06:17:33;30.38;;;21.52;;
40675;SDS011;26359;48.750;9.314;2022-12-08T06:19:59;32.40;;;23.10;;
40675;SDS011;26359;48.750;9.314;2022-12-08T06:22:24;31.55;;;23.27;;
40675;SDS011;26359;48.750;9.314;2022-12-08T06:24:50;24.85;;;18.55;;
40675;SDS011;26359;48.750;9.314;2022-12-08T06:27:15;22.50;;;16.13;;
40675;SDS011;26359;48.750;9.314;2022-12-08T06:29:41;21.80;;;15.55;;
40675;SDS011;26359;48.750;9.314;2022-12-08T06:32:07;23.75;;;17.73;;
40675;SDS011;26359;48.750;9.314;2022-12-08T06:34:32;23.63;;;17.23;;
40675;SDS011;26359;48.750;9.314;2022-12-08T06:36:58;22.98;;;17.05;;
40675;SDS011;26359;48.750;9.314;2022-12-08T06:39:23;22.52;;;15.50;;
40675;SDS011;26359;48.750;9.314;2022-12-08T06:41:49;21.85;;;16.35;;
40675;SDS011;26359;48.750;9.314;2022-12-08T06:44:33;20.75;;;16.00;;
40675;SDS011;26359;48.750;9.314;2022-12-08T06:46:58;21.27;;;15.65;;
40675;SDS011;26359;48.750;9.314;2022-12-08T06:49:24;27.70;;;16.73;;
40675;SDS011;26359;48.750;9.314;2022-12-08T06:51:49;19.50;;;14.15;;
40675;SDS011;26359;48.750;9.314;2022-12-08T06:54:18;24.02;;;15.50;;
40675;SDS011;26359;48.750;9.314;2022-12-08T06:56:43;22.67;;;15.73;;
40675;SDS011;26359;48.750;9.314;2022-12-08T06:59:09;19.10;;;14.60;;
40675;SDS011;26359;48.750;9.314;2022-12-08T07:01:34;21.80;;;15.35;;
40675;SDS011;26359;48.750;9.314;2022-12-08T07:04:00;17.83;;;13.82;;
40675;SDS011;26359;48.750;9.314;2022-12-08T07:06:26;21.42;;;14.93;;
40675;SDS011;26359;48.750;9.314;2022-12-08T07:08:51;20.02;;;15.00;;
40675;SDS011;26359;48.750;9.314;2022-12-08T07:11:17;19.77;;;14.35;;
40675;SDS011;26359;48.750;9.314;2022-12-08T07:13:43;19.10;;;14.32;;
40675;SDS011;26359;48.750;9.314;2022-12-08T07:16:09;19.63;;;16.23;;
40675;SDS011;26359;48.750;9.314;2022-12-08T07:18:36;22.10;;;16.38;;
40675;SDS011;26359;48.750;9.314;2022-12-08T07:21:05;22.70;;;17.70;;
40675;SDS011;26359;48.750;9.314;2022-12-08T07:23:33;20.63;;;15.70;;
40675;SDS011;26359;48.750;9.314;2022-12-08T07:26:00;20.08;;;15.82;;
40675;SDS011;26359;48.750;9.314;2022-12-08T07:28:26;23.73;;;17.90;;
40675;SDS011;26359;48.750;9.314;2022-12-08T07:30:53;22.80;;;16.70;;
40675;SDS011;26359;48.750;9.314;2022-12-08T07:33:19;27.13;;;18.23;;
40675;SDS011;26359;48.750;9.314;2022-12-08T07:35:52;24.73;;;17.38;;
40675;SDS011;26359;48.750;9.314;2022-12-08T07:38:18;25.45;;;17.88;;
40675;SDS011;26359;48.750;9.314;2022-12-08T07:40:44;23.67;;;15.73;;
40675;SDS011;26359;48.750;9.314;2022-12-08T07:43:09;24.23;;;15.75;;
40675;SDS011;26359;48.750;9.314;2022-12-08T07:45:35;19.90;;;14.43;;
40675;SDS011;26359;48.750;9.314;2022-12-08T07:48:00;21.75;;;16.95;;
40675;SDS011;26359;48.750;9.314;2022-12-08T07:50:26;20.75;;;14.85;;
40675;SDS011;26359;48.750;9.314;2022-12-08T07:52:51;24.38;;;16.42;;
40675;SDS011;26359;48.750;9.314;2022-12-08T07:55:17;23.42;;;15.98;;
40675;SDS011;26359;48.750;9.314;2022-12-08T07:57:42;22.77;;;15.52;;
40675;SDS011;26359;48.750;9.314;2022-12-08T08:00:08;22.45;;;14.70;;
40675;SDS011;26359;48.750;9.314;2022-12-08T08:02:37;20.52;;;14.00;;
40675;SDS011;26359;48.750;9.314;2022-12-08T08:05:03;18.67;;;14.93;;
40675;SDS011;26359;48.750;9.314;2022-12-08T08:07:30;23.15;;;15.32;;
40675;SDS011;26359;48.750;9.314;2022-12-08T08:09:56;23.50;;;15.32;;
40675;SDS011;26359;48.750;9.314;2022-12-08T08:12:31;21.85;;;15.20;;
40675;SDS011;26359;48.750;9.314;2022-12-08T08:14:57;21.35;;;14.70;;
40675;SDS011;26359;48.750;9.314;2022-12-08T08:17:41;19.50;;;14.00;;
40675;SDS011;26359;48.750;9.314;2022-12-08T08:20:07;21.27;;;15.38;;
40675;SDS011;26359;48.750;9.314;2022-12-08T08:22:36;19.65;;;15.32;;
40675;SDS011;26359;48.750;9.314;2022-12-08T08:25:04;23.85;;;14.05;;
40675;SDS011;26359;48.750;9.314;2022-12-08T08:27:33;22.52;;;14.98;;
40675;SDS011;26359;48.750;9.314;2022-12-08T08:29:58;22.10;;;14.23;;
40675;SDS011;26359;48.750;9.314;2022-12-08T08:32:26;21.60;;;15.25;;
40675;SDS011;26359;48.750;9.314;2022-12-08T08:34:52;22.95;;;14.68;;
40675;SDS011;26359;48.750;9.314;2022-12-08T08:37:20;20.63;;;15.15;;
40675;SDS011;26359;48.750;9.314;2022-12-08T08:39:48;27.40;;;16.38;;
40675;SDS011;26359;48.750;9.314;2022-12-08T08:42:16;25.67;;;15.02;;
40675;SDS011;26359;48.750;9.314;2022-12-08T08:44:42;21.35;;;15.68;;
40675;SDS011;26359;48.750;9.314;2022-12-08T08:47:08;17.90;;;13.40;;
40675;SDS011;26359;48.750;9.314;2022-12-08T08:49:34;20.25;;;15.70;;
40675;SDS011;26359;48.750;9.314;2022-12-08T08:52:00;22.13;;;19.83;;
40675;SDS011;26359;48.750;9.314;2022-12-08T08:54:27;24.20;;;17.08;;
40675;SDS011;26359;48.750;9.314;2022-12-08T08:56:53;19.38;;;16.63;;
40675;SDS011;26359;48.750;9.314;2022-12-08T08:59:18;21.02;;;13.27;;
40675;SDS011;26359;48.750;9.314;2022-12-08T09:01:44;16.85;;;12.77;;
40675;SDS011;26359;48.750;9.314;2022-12-08T09:04:10;16.67;;;11.90;;
40675;SDS011;26359;48.750;9.314;2022-12-08T09:06:35;19.58;;;12.32;;
40675;SDS011;26359;48.750;9.314;2022-12-08T09:09:01;17.00;;;12.00;;
40675;SDS011;26359;48.750;9.314;2022-12-08T09:11:27;17.60;;;11.98;;
40675;SDS011;26359;48.750;9.314;2022-12-08T09:13:53;16.65;;;12.32;;
40675;SDS011;26359;48.750;9.314;2022-12-08T09:16:19;16.63;;;12.73;;
40675;SDS011;26359;48.750;9.314;2022-12-08T09:18:45;16.92;;;12.23;;
40675;SDS011;26359;48.750;9.314;2022-12-08T09:21:13;15.63;;;12.27;;
40675;SDS011;26359;48.750;9.314;2022-12-08T09:23:44;16.35;;;12.10;;
40675;SDS011;26359;48.750;9.314;2022-12-08T09:26:09;16.70;;;11.82;;
40675;SDS011;26359;48.750;9.314;2022-12-08T09:28:35;16.48;;;12.15;;
40675;SDS011;26359;48.750;9.314;2022-12-08T09:31:01;15.45;;;11.85;;
40675;SDS011;26359;48.750;9.314;2022-12-08T09:33:27;14.30;;;11.05;;
40675;SDS011;26359;48.750;9.314;2022-12-08T09:35:53;16.08;;;11.95;;
40675;SDS011;26359;48.750;9.314;2022-12-08T09:38:19;14.95;;;12.32;;
40675;SDS011;26359;48.750;9.314;2022-12-08T09:40:48;16.98;;;12.90;;
40675;SDS011;26359;48.750;9.314;2022-12-08T09:43:20;14.90;;;12.68;;
40675;SDS011;26359;48.750;9.314;2022-12-08T09:45:59;15.73;;;14.13;;
40675;SDS011;26359;48.750;9.314;2022-12-08T09:48:33;17.17;;;13.18;;
40675;SDS011;26359;48.750;9.314;2022-12-08T09:51:02;16.58;;;13.07;;
40675;SDS011;26359;48.750;9.314;2022-12-08T09:53:38;17.77;;;12.23;;
40675;SDS011;26359;48.750;9.314;2022-12-08T09:56:16;13.02;;;11.63;;
40675;SDS011;26359;48.750;9.314;2022-12-08T09:58:54;13.50;;;11.43;;
40675;SDS011;26359;48.750;9.314;2022-12-08T10:01:22;10.80;;;9.03;;
40675;SDS011;26359;48.750;9.314;2022-12-08T10:03:52;15.55;;;11.38;;
40675;SDS011;26359;48.750;9.314;2022-12-08T10:06:37;16.83;;;12.05;;
40675;SDS011;26359;48.750;9.314;2022-12-08T10:17:46;13.75;;;12.32;;
40675;SDS011;26359;48.750;9.314;2022-12-08T10:20:16;14.75;;;13.25;;
40675;SDS011;26359;48.750;9.314;2022-12-08T10:22:43;11.57;;;10.38;;
40675;SDS011;26359;48.750;9.314;2022-12-08T10:25:14;15.98;;;11.57;;
40675;SDS011;26359;48.750;9.314;2022-12-08T10:27:54;14.63;;;11.23;;
40675;SDS011;26359;48.750;9.314;2022-12-08T10:30:20;13.57;;;12.10;;
40675;SDS011;26359;48.750;9.314;2022-12-08T10:32:50;14.88;;;13.43;;
40675;SDS011;26359;48.750;9.314;2022-12-08T10:35:18;12.80;;;11.57;;
40675;SDS011;26359;48.750;9.314;2022-12-08T10:37:59;14.43;;;12.00;;
40675;SDS011;26359;48.750;9.314;2022-12-08T10:40:27;14.65;;;12.18;;
40675;SDS011;26359;48.750;9.314;2022-12-08T10:43:02;15.73;;;12.48;;
40675;SDS011;26359;48.750;9.314;2022-12-08T10:48:03;13.38;;;11.63;;
40675;SDS011;26359;48.750;9.314;2022-12-08T10:50:41;11.50;;;10.40;;
40675;SDS011;26359;48.750;9.314;2022-12-08T10:53:11;12.38;;;11.00;;
40675;SDS011;26359;48.750;9.314;2022-12-08T10:58:32;12.30;;;10.32;;
40675;SDS011;26359;48.750;9.314;2022-12-08T11:01:45;11.15;;;9.75;;
40675;SDS011;26359;48.750;9.314;2022-12-08T11:03:53;10.25;;;9.18;;
40675;SDS011;26359;48.750;9.314;2022-12-08T11:09:06;12.68;;;9.75;;
40675;SDS011;26359;48.750;9.314;2022-12-08T11:11:51;12.20;;;10.98;;
40675;SDS011;26359;48.750;9.314;2022-12-08T11:19:54;13.10;;;9.20;;
40675;SDS011;26359;48.750;9.314;2022-12-08T11:22:30;9.35;;;8.35;;
40675;SDS011;26359;48.750;9.314;2022-12-08T11:27:32;9.43;;;8.50;;
40675;SDS011;26359;48.750;9.314;2022-12-08T11:30:01;10.55;;;9.52;;
40675;SDS011;26359;48.750;9.314;2022-12-08T11:32:36;13.95;;;9.52;;
40675;SDS011;26359;48.750;9.314;2022-12-08T11:35:08;14.97;;;11.03;;
40675;SDS011;26359;48.750;9.314;2022-12-08T11:38:27;10.88;;;9.77;;
40675;SDS011;26359;48.750;9.314;2022-12-08T11:40:49;11.88;;;10.75;;
40675;SDS011;26359;48.750;9.314;2022-12-08T11:43:45;15.25;;;13.93;;
40675;SDS011;26359;48.750;9.314;2022-12-08T11:51:38;17.65;;;16.23;;
40675;SDS011;26359;48.750;9.314;2022-12-08T11:54:37;18.42;;;17.02;;
40675;SDS011;26359;48.750;9.314;2022-12-08T11:57:11;11.27;;;10.15;;
40675;SDS011;26359;48.750;9.314;2022-12-08T11:59:44;9.55;;;8.25;;
40675;SDS011;26359;48.750;9.314;2022-12-08T12:02:20;11.13;;;9.10;;
40675;SDS011;26359;48.750;9.314;2022-12-08T12:12:36;14.18;;;13.02;;
40675;SDS011;26359;48.750;9.314;2022-12-08T12:20:54;10.95;;;9.95;;
40675;SDS011;26359;48.750;9.314;2022-12-08T12:23:40;11.05;;;9.85;;
40675;SDS011;26359;48.750;9.314;2022-12-08T12:26:17;8.68;;;7.90;;
40675;SDS011;26359;48.750;9.314;2022-12-08T12:29:02;10.00;;;8.88;;
40675;SDS011;26359;48.750;9.314;2022-12-08T12:31:37;11.23;;;9.05;;
40675;SDS011;26359;48.750;9.314;2022-12-08T12:34:07;8.60;;;7.80;;
40675;SDS011;26359;48.750;9.314;2022-12-08T12:36:46;9.27;;;7.93;;
40675;SDS011;26359;48.750;9.314;2022-12-08T12:39:16;8.52;;;7.63;;
40675;SDS011;26359;48.750;9.314;2022-12-08T12:41:50;10.43;;;8.75;;
40675;SDS011;26359;48.750;9.314;2022-12-08T12:44:35;8.75;;;7.68;;
40675;SDS011;26359;48.750;9.314;2022-12-08T12:47:10;8.57;;;7.75;;
40675;SDS011;26359;48.750;9.314;2022-12-08T12:50:06;8.27;;;7.47;;
40675;SDS011;26359;48.750;9.314;2022-12-08T12:57:36;8.57;;;7.80;;
40675;SDS011;26359;48.750;9.314;2022-12-08T13:02:38;9.55;;;8.75;;
40675;SDS011;26359;48.750;9.314;2022-12-08T13:05:20;11.48;;;10.43;;
40675;SDS011;26359;48.750;9.314;2022-12-08T13:07:52;9.38;;;8.48;;
40675;SDS011;26359;48.750;9.314;2022-12-08T13:10:32;11.32;;;8.27;;
40675;SDS011;26359;48.750;9.314;2022-12-08T13:15:59;8.38;;;7.32;;
40675;SDS011;26359;48.750;9.314;2022-12-08T13:18:41;9.63;;;8.70;;
40675;SDS011;26359;48.750;9.314;2022-12-08T13:21:13;7.18;;;6.47;;
40675;SDS011;26359;48.750;9.314;2022-12-08T13:26:22;11.57;;;10.35;;
40675;SDS011;26359;48.750;9.314;2022-12-08T13:33:59;10.10;;;8.88;;
40675;SDS011;26359;48.750;9.314;2022-12-08T13:36:31;10.50;;;8.50;;
40675;SDS011;26359;48.750;9.314;2022-12-08T13:39:02;12.15;;;10.77;;
40675;SDS011;26359;48.750;9.314;2022-12-08T13:41:37;8.75;;;7.85;;
40675;SDS011;26359;48.750;9.314;2022-12-08T13:44:13;11.27;;;10.23;;
40675;SDS011;26359;48.750;9.314;2022-12-08T13:46:50;12.10;;;11.02;;
40675;SDS011;26359;48.750;9.314;2022-12-08T13:49:22;13.30;;;10.30;;
40675;SDS011;26359;48.750;9.314;2022-12-08T13:51:53;11.25;;;10.25;;
40675;SDS011;26359;48.750;9.314;2022-12-08T13:56:50;9.75;;;7.85;;
40675;SDS011;26359;48.750;9.314;2022-12-08T13:59:28;8.10;;;7.30;;
40675;SDS011;26359;48.750;9.314;2022-12-08T14:02:01;8.40;;;7.60;;
40675;SDS011;26359;48.750;9.314;2022-12-08T14:04:29;9.60;;;8.73;;
40675;SDS011;26359;48.750;9.314;2022-12-08T14:06:55;10.60;;;8.23;;
40675;SDS011;26359;48.750;9.314;2022-12-08T14:09:24;10.10;;;9.18;;
40675;SDS011;26359;48.750;9.314;2022-12-08T14:14:41;9.38;;;8.20;;
40675;SDS011;26359;48.750;9.314;2022-12-08T14:17:13;10.18;;;8.38;;
40675;SDS011;26359;48.750;9.314;2022-12-08T14:19:42;9.60;;;8.52;;
40675;SDS011;26359;48.750;9.314;2022-12-08T14:22:14;10.00;;;9.13;;
40675;SDS011;26359;48.750;9.314;2022-12-08T14:24:48;8.85;;;7.72;;
40675;SDS011;26359;48.750;9.314;2022-12-08T14:27:22;9.68;;;8.75;;
40675;SDS011;26359;48.750;9.314;2022-12-08T14:29:54;8.90;;;8.10;;
40675;SDS011;26359;48.750;9.314;2022-12-08T14:32:26;8.32;;;7.53;;
40675;SDS011;26359;48.750;9.314;2022-12-08T14:37:34;8.65;;;7.82;;
40675;SDS011;26359;48.750;9.314;2022-12-08T14:42:47;8.00;;;7.20;;
40675;SDS011;26359;48.750;9.314;2022-12-08T14:45:16;9.30;;;6.78;;
40675;SDS011;26359;48.750;9.314;2022-12-08T14:47:43;7.63;;;6.78;;
40675;SDS011;26359;48.750;9.314;2022-12-08T14:53:00;10.73;;;9.70;;
40675;SDS011;26359;48.750;9.314;2022-12-08T14:55:26;9.45;;;7.95;;
40675;SDS011;26359;48.750;9.314;2022-12-08T14:57:58;8.45;;;7.28;;
40675;SDS011;26359;48.750;9.314;2022-12-08T15:00:24;10.23;;;8.20;;
40675;SDS011;26359;48.750;9.314;2022-12-08T15:02:50;11.40;;;9.32;;
40675;SDS011;26359;48.750;9.314;2022-12-08T15:05:16;9.07;;;6.70;;
40675;SDS011;26359;48.750;9.314;2022-12-08T15:07:51;9.43;;;6.47;;
40675;SDS011;26359;48.750;9.314;2022-12-08T15:15:28;8.25;;;7.00;;
40675;SDS011;26359;48.750;9.314;2022-12-08T15:18:12;8.43;;;7.22;;
40675;SDS011;26359;48.750;9.314;2022-12-08T15:20:42;10.18;;;9.27;;
40675;SDS011;26359;48.750;9.314;2022-12-08T15:25:44;12.48;;;11.25;;
40675;SDS011;26359;48.750;9.314;2022-12-08T15:28:13;14.25;;;10.63;;
40675;SDS011;26359;48.750;9.314;2022-12-08T15:30:41;12.18;;;10.73;;
40675;SDS011;26359;48.750;9.314;2022-12-08T15:33:07;10.82;;;7.97;;
40675;SDS011;26359;48.750;9.314;2022-12-08T15:35:33;11.68;;;8.43;;
40675;SDS011;26359;48.750;9.314;2022-12-08T15:37:59;10.00;;;8.18;;
40675;SDS011;26359;48.750;9.314;2022-12-08T15:40:24;12.07;;;8.85;;
40675;SDS011;26359;48.750;9.314;2022-12-08T15:42:51;9.88;;;7.03;;
40675;SDS011;26359;48.750;9.314;2022-12-08T15:45:17;11.40;;;7.63;;
40675;SDS011;26359;48.750;9.314;2022-12-08T15:47:43;10.38;;;7.85;;
40675;SDS011;26359;48.750;9.314;2022-12-08T15:50:13;10.40;;;7.65;;
40675;SDS011;26359;48.750;9.314;2022-12-08T15:52:40;10.68;;;7.30;;
40675;SDS011;26359;48.750;9.314;2022-12-08T15:55:07;13.13;;;7.63;;
40675;SDS011;26359;48.750;9.314;2022-12-08T15:57:36;10.02;;;7.53;;
40675;SDS011;26359;48.750;9.314;2022-12-08T16:00:02;14.25;;;7.28;;
40675;SDS011;26359;48.750;9.314;2022-12-08T16:02:28;10.63;;;7.13;;
40675;SDS011;26359;48.750;9.314;2022-12-08T16:04:54;10.23;;;7.30;;
40675;SDS011;26359;48.750;9.314;2022-12-08T16:07:20;11.85;;;7.60;;
40675;SDS011;26359;48.750;9.314;2022-12-08T16:09:52;10.48;;;7.68;;
40675;SDS011;26359;48.750;9.314;2022-12-08T16:12:20;10.02;;;7.78;;
40675;SDS011;26359;48.750;9.314;2022-12-08T16:15:06;12.68;;;8.25;;
40675;SDS011;26359;48.750;9.314;2022-12-08T16:17:32;10.63;;;8.02;;
40675;SDS011;26359;48.750;9.314;2022-12-08T16:19:59;11.35;;;8.25;;
40675;SDS011;26359;48.750;9.314;2022-12-08T16:22:26;12.73;;;8.55;;
40675;SDS011;26359;48.750;9.314;2022-12-08T16:24:53;13.32;;;8.55;;
40675;SDS011;26359;48.750;9.314;2022-12-08T16:27:20;12.90;;;8.40;;
40675;SDS011;26359;48.750;9.314;2022-12-08T16:29:47;12.23;;;8.10;;
40675;SDS011;26359;48.750;9.314;2022-12-08T16:32:14;11.75;;;9.07;;
40675;SDS011;26359;48.750;9.314;2022-12-08T16:34:40;13.77;;;8.23;;